sensor_id;sensor_type;location;lat;lon;timestamp;P1;durP1;ratioP1;P2;durP2;ratioP2
11125;SDS011;5617;54.046;10.676;2024-01-16T00:00:35;2.97;;;1.30;;
11125;SDS011;5617;54.046;10.676;2024-01-16T00:02:44;2.93;;;1.70;;
11125;SDS011;5617;54.046;10.676;2024-01-16T00:04:52;2.00;;;1.30;;
11125;SDS011;5617;54.046;10.676;2024-01-16T00:06:59;2.50;;;1.00;;
11125;SDS011;5617;54.046;10.676;2024-01-16T00:09:09;2.17;;;1.10;;
11125;SDS011;5617;54.046;10.676;2024-01-16T00:11:19;1.43;;;1.00;;
11125;SDS011;5617;54.046;10.676;2024-01-16T00:13:27;1.10;;;1.00;;
11125;SDS011;5617;54.046;10.676;2024-01-16T00:15:36;2.23;;;1.20;;
11125;SDS011;5617;54.046;10.676;2024-01-16T00:17:44;2.40;;;1.20;;
11125;SDS011;5617;54.046;10.676;2024-01-16T00:19:52;3.53;;;1.20;;
11125;SDS011;5617;54.046;10.676;2024-01-16T00:22:01;2.53;;;1.20;;
11125;SDS011;5617;54.046;10.676;2024-01-16T00:24:13;1.97;;;1.10;;
11125;SDS011;5617;54.046;10.676;2024-01-16T00:26:22;2.27;;;1.40;;
11125;SDS011;5617;54.046;10.676;2024-01-16T00:28:31;1.40;;;1.17;;
11125;SDS011;5617;54.046;10.676;2024-01-16T00:30:39;1.40;;;1.20;;
11125;SDS011;5617;54.046;10.676;2024-01-16T00:32:47;2.07;;;1.30;;
11125;SDS011;5617;54.046;10.676;2024-01-16T00:34:56;1.50;;;1.20;;
11125;SDS011;5617;54.046;10.676;2024-01-16T00:37:03;1.40;;;1.30;;
11125;SDS011;5617;54.046;10.676;2024-01-16T00:39:13;3.83;;;1.83;;
11125;SDS011;5617;54.046;10.676;2024-01-16T00:41:21;2.63;;;2.03;;
11125;SDS011;5617;54.046;10.676;2024-01-16T00:43:30;3.03;;;2.50;;
11125;SDS011;5617;54.046;10.676;2024-01-16T00:45:38;1.77;;;1.30;;
11125;SDS011;5617;54.046;10.676;2024-01-16T00:47:47;1.90;;;1.37;;
11125;SDS011;5617;54.046;10.676;2024-01-16T00:49:56;2.77;;;1.47;;
11125;SDS011;5617;54.046;10.676;2024-01-16T00:52:04;1.40;;;1.10;;
11125;SDS011;5617;54.046;10.676;2024-01-16T00:54:14;1.40;;;1.20;;
11125;SDS011;5617;54.046;10.676;2024-01-16T00:56:28;1.20;;;1.10;;
11125;SDS011;5617;54.046;10.676;2024-01-16T00:58:38;2.87;;;1.40;;
11125;SDS011;5617;54.046;10.676;2024-01-16T01:00:47;2.13;;;1.40;;
11125;SDS011;5617;54.046;10.676;2024-01-16T01:02:55;2.87;;;1.30;;
11125;SDS011;5617;54.046;10.676;2024-01-16T01:05:05;2.70;;;1.10;;
11125;SDS011;5617;54.046;10.676;2024-01-16T01:07:15;2.67;;;1.30;;
11125;SDS011;5617;54.046;10.676;2024-01-16T01:09:25;1.80;;;1.30;;
11125;SDS011;5617;54.046;10.676;2024-01-16T01:11:33;4.70;;;1.20;;
11125;SDS011;5617;54.046;10.676;2024-01-16T01:13:41;2.77;;;1.37;;
11125;SDS011;5617;54.046;10.676;2024-01-16T01:15:49;1.20;;;1.10;;
11125;SDS011;5617;54.046;10.676;2024-01-16T01:17:57;2.13;;;1.40;;
11125;SDS011;5617;54.046;10.676;2024-01-16T01:20:06;3.07;;;1.40;;
11125;SDS011;5617;54.046;10.676;2024-01-16T01:22:15;1.77;;;1.20;;
11125;SDS011;5617;54.046;10.676;2024-01-16T01:24:25;1.63;;;1.40;;
11125;SDS011;5617;54.046;10.676;2024-01-16T01:26:34;4.57;;;1.50;;
11125;SDS011;5617;54.046;10.676;2024-01-16T01:28:42;2.43;;;1.50;;
11125;SDS011;5617;54.046;10.676;2024-01-16T01:30:50;1.30;;;1.17;;
11125;SDS011;5617;54.046;10.676;2024-01-16T01:32:59;2.43;;;1.63;;
11125;SDS011;5617;54.046;10.676;2024-01-16T01:35:07;2.07;;;1.30;;
11125;SDS011;5617;54.046;10.676;2024-01-16T01:37:18;3.17;;;1.50;;
11125;SDS011;5617;54.046;10.676;2024-01-16T01:39:27;2.63;;;1.40;;
11125;SDS011;5617;54.046;10.676;2024-01-16T01:41:36;1.40;;;1.30;;
11125;SDS011;5617;54.046;10.676;2024-01-16T01:43:44;1.53;;;1.43;;
11125;SDS011;5617;54.046;10.676;2024-01-16T01:45:58;2.13;;;1.73;;
11125;SDS011;5617;54.046;10.676;2024-01-16T01:48:20;2.03;;;1.60;;
11125;SDS011;5617;54.046;10.676;2024-01-16T01:50:29;1.67;;;1.50;;
11125;SDS011;5617;54.046;10.676;2024-01-16T01:52:38;2.53;;;1.50;;
11125;SDS011;5617;54.046;10.676;2024-01-16T01:54:49;3.27;;;1.60;;
11125;SDS011;5617;54.046;10.676;2024-01-16T01:56:59;4.43;;;2.00;;
11125;SDS011;5617;54.046;10.676;2024-01-16T01:59:08;4.57;;;1.87;;
11125;SDS011;5617;54.046;10.676;2024-01-16T02:01:17;2.03;;;1.83;;
11125;SDS011;5617;54.046;10.676;2024-01-16T02:03:27;3.70;;;1.87;;
11125;SDS011;5617;54.046;10.676;2024-01-16T02:05:37;2.77;;;1.93;;
11125;SDS011;5617;54.046;10.676;2024-01-16T02:07:48;2.77;;;2.03;;
11125;SDS011;5617;54.046;10.676;2024-01-16T02:09:59;2.33;;;1.87;;
11125;SDS011;5617;54.046;10.676;2024-01-16T02:12:08;2.93;;;2.17;;
11125;SDS011;5617;54.046;10.676;2024-01-16T02:14:17;2.20;;;1.87;;
11125;SDS011;5617;54.046;10.676;2024-01-16T02:16:24;4.53;;;2.27;;
11125;SDS011;5617;54.046;10.676;2024-01-16T02:18:32;3.17;;;2.10;;
11125;SDS011;5617;54.046;10.676;2024-01-16T02:20:41;5.70;;;2.40;;
11125;SDS011;5617;54.046;10.676;2024-01-16T02:22:48;3.43;;;2.30;;
11125;SDS011;5617;54.046;10.676;2024-01-16T02:25:03;3.77;;;2.50;;
11125;SDS011;5617;54.046;10.676;2024-01-16T02:27:12;2.77;;;2.20;;
11125;SDS011;5617;54.046;10.676;2024-01-16T02:29:21;3.10;;;2.60;;
11125;SDS011;5617;54.046;10.676;2024-01-16T02:31:29;3.80;;;2.80;;
11125;SDS011;5617;54.046;10.676;2024-01-16T02:33:37;2.90;;;2.50;;
11125;SDS011;5617;54.046;10.676;2024-01-16T02:35:46;2.93;;;2.40;;
11125;SDS011;5617;54.046;10.676;2024-01-16T02:37:55;3.40;;;2.10;;
11125;SDS011;5617;54.046;10.676;2024-01-16T02:40:06;3.00;;;2.30;;
11125;SDS011;5617;54.046;10.676;2024-01-16T02:42:16;3.17;;;2.20;;
11125;SDS011;5617;54.046;10.676;2024-01-16T02:44:24;2.40;;;2.20;;
11125;SDS011;5617;54.046;10.676;2024-01-16T02:46:34;2.63;;;2.17;;
11125;SDS011;5617;54.046;10.676;2024-01-16T02:48:42;3.53;;;2.30;;
11125;SDS011;5617;54.046;10.676;2024-01-16T02:50:50;3.87;;;2.70;;
11125;SDS011;5617;54.046;10.676;2024-01-16T02:52:58;3.47;;;2.30;;
11125;SDS011;5617;54.046;10.676;2024-01-16T02:55:08;3.87;;;2.40;;
11125;SDS011;5617;54.046;10.676;2024-01-16T02:57:17;3.90;;;2.43;;
11125;SDS011;5617;54.046;10.676;2024-01-16T02:59:25;3.23;;;2.40;;
11125;SDS011;5617;54.046;10.676;2024-01-16T03:01:35;3.40;;;2.30;;
11125;SDS011;5617;54.046;10.676;2024-01-16T03:03:44;4.93;;;2.83;;
11125;SDS011;5617;54.046;10.676;2024-01-16T03:05:51;2.80;;;2.50;;
11125;SDS011;5617;54.046;10.676;2024-01-16T03:08:03;5.60;;;3.03;;
11125;SDS011;5617;54.046;10.676;2024-01-16T03:10:13;3.87;;;3.10;;
11125;SDS011;5617;54.046;10.676;2024-01-16T03:12:22;5.47;;;3.10;;
11125;SDS011;5617;54.046;10.676;2024-01-16T03:14:31;4.20;;;3.13;;
11125;SDS011;5617;54.046;10.676;2024-01-16T03:16:40;5.50;;;3.30;;
11125;SDS011;5617;54.046;10.676;2024-01-16T03:18:49;3.63;;;3.00;;
11125;SDS011;5617;54.046;10.676;2024-01-16T03:20:58;3.27;;;2.90;;
11125;SDS011;5617;54.046;10.676;2024-01-16T03:23:05;4.17;;;3.13;;
11125;SDS011;5617;54.046;10.676;2024-01-16T03:25:15;5.13;;;3.13;;
11125;SDS011;5617;54.046;10.676;2024-01-16T03:27:24;5.63;;;2.83;;
11125;SDS011;5617;54.046;10.676;2024-01-16T03:29:33;6.07;;;3.93;;
11125;SDS011;5617;54.046;10.676;2024-01-16T03:31:41;4.77;;;3.13;;
11125;SDS011;5617;54.046;10.676;2024-01-16T03:33:49;6.17;;;3.40;;
11125;SDS011;5617;54.046;10.676;2024-01-16T03:35:58;6.07;;;3.10;;
11125;SDS011;5617;54.046;10.676;2024-01-16T03:38:06;4.73;;;3.83;;
11125;SDS011;5617;54.046;10.676;2024-01-16T03:40:16;4.90;;;3.37;;
11125;SDS011;5617;54.046;10.676;2024-01-16T03:42:25;4.00;;;3.07;;
11125;SDS011;5617;54.046;10.676;2024-01-16T03:44:33;4.50;;;3.53;;
11125;SDS011;5617;54.046;10.676;2024-01-16T03:46:46;5.17;;;3.93;;
11125;SDS011;5617;54.046;10.676;2024-01-16T03:48:54;6.07;;;4.10;;
11125;SDS011;5617;54.046;10.676;2024-01-16T03:51:02;8.40;;;4.03;;
11125;SDS011;5617;54.046;10.676;2024-01-16T03:53:10;7.37;;;4.30;;
11125;SDS011;5617;54.046;10.676;2024-01-16T03:55:20;6.17;;;4.33;;
11125;SDS011;5617;54.046;10.676;2024-01-16T03:57:29;6.53;;;4.63;;
11125;SDS011;5617;54.046;10.676;2024-01-16T03:59:38;4.80;;;4.00;;
11125;SDS011;5617;54.046;10.676;2024-01-16T04:01:46;5.93;;;4.57;;
11125;SDS011;5617;54.046;10.676;2024-01-16T04:03:55;6.03;;;4.40;;
11125;SDS011;5617;54.046;10.676;2024-01-16T04:06:04;4.87;;;3.93;;
11125;SDS011;5617;54.046;10.676;2024-01-16T04:08:22;5.23;;;3.73;;
11125;SDS011;5617;54.046;10.676;2024-01-16T04:10:32;7.67;;;4.70;;
11125;SDS011;5617;54.046;10.676;2024-01-16T04:12:41;5.20;;;3.90;;
11125;SDS011;5617;54.046;10.676;2024-01-16T04:14:49;6.33;;;4.03;;
11125;SDS011;5617;54.046;10.676;2024-01-16T04:16:58;5.83;;;4.37;;
11125;SDS011;5617;54.046;10.676;2024-01-16T04:19:06;6.57;;;4.30;;
11125;SDS011;5617;54.046;10.676;2024-01-16T04:21:14;7.37;;;4.40;;
11125;SDS011;5617;54.046;10.676;2024-01-16T04:23:27;6.60;;;4.90;;
11125;SDS011;5617;54.046;10.676;2024-01-16T04:25:36;6.78;;;4.75;;
11125;SDS011;5617;54.046;10.676;2024-01-16T04:27:45;7.90;;;4.60;;
11125;SDS011;5617;54.046;10.676;2024-01-16T04:29:53;5.20;;;4.17;;
11125;SDS011;5617;54.046;10.676;2024-01-16T04:32:02;6.83;;;4.53;;
11125;SDS011;5617;54.046;10.676;2024-01-16T04:34:10;7.47;;;4.80;;
11125;SDS011;5617;54.046;10.676;2024-01-16T04:36:19;5.87;;;4.30;;
11125;SDS011;5617;54.046;10.676;2024-01-16T04:38:27;6.20;;;3.90;;
11125;SDS011;5617;54.046;10.676;2024-01-16T04:40:37;8.03;;;5.47;;
11125;SDS011;5617;54.046;10.676;2024-01-16T04:42:44;7.50;;;5.32;;
11125;SDS011;5617;54.046;10.676;2024-01-16T04:44:52;6.80;;;4.27;;
11125;SDS011;5617;54.046;10.676;2024-01-16T04:47:01;6.90;;;4.10;;
11125;SDS011;5617;54.046;10.676;2024-01-16T04:49:09;10.48;;;5.13;;
11125;SDS011;5617;54.046;10.676;2024-01-16T04:51:18;7.53;;;5.00;;
11125;SDS011;5617;54.046;10.676;2024-01-16T04:53:26;6.90;;;5.10;;
11125;SDS011;5617;54.046;10.676;2024-01-16T04:55:39;6.20;;;4.10;;
11125;SDS011;5617;54.046;10.676;2024-01-16T04:57:48;7.80;;;4.28;;
11125;SDS011;5617;54.046;10.676;2024-01-16T04:59:56;6.33;;;4.70;;
11125;SDS011;5617;54.046;10.676;2024-01-16T05:02:05;6.27;;;4.40;;
11125;SDS011;5617;54.046;10.676;2024-01-16T05:04:13;5.63;;;4.33;;
11125;SDS011;5617;54.046;10.676;2024-01-16T05:06:22;7.80;;;5.00;;
11125;SDS011;5617;54.046;10.676;2024-01-16T05:08:30;5.00;;;3.93;;
11125;SDS011;5617;54.046;10.676;2024-01-16T05:10:40;6.30;;;4.43;;
11125;SDS011;5617;54.046;10.676;2024-01-16T05:12:52;5.50;;;4.17;;
11125;SDS011;5617;54.046;10.676;2024-01-16T05:15:00;5.78;;;4.15;;
11125;SDS011;5617;54.046;10.676;2024-01-16T05:17:09;7.07;;;4.50;;
11125;SDS011;5617;54.046;10.676;2024-01-16T05:19:18;6.77;;;4.30;;
11125;SDS011;5617;54.046;10.676;2024-01-16T05:21:26;8.13;;;4.67;;
11125;SDS011;5617;54.046;10.676;2024-01-16T05:23:35;7.00;;;4.70;;
11125;SDS011;5617;54.046;10.676;2024-01-16T05:25:45;7.33;;;4.67;;
11125;SDS011;5617;54.046;10.676;2024-01-16T05:27:53;8.83;;;4.33;;
11125;SDS011;5617;54.046;10.676;2024-01-16T05:30:01;13.80;;;7.00;;
11125;SDS011;5617;54.046;10.676;2024-01-16T05:32:13;9.50;;;5.90;;
11125;SDS011;5617;54.046;10.676;2024-01-16T05:34:21;8.57;;;5.30;;
11125;SDS011;5617;54.046;10.676;2024-01-16T05:36:29;9.67;;;5.70;;
11125;SDS011;5617;54.046;10.676;2024-01-16T05:38:38;4.80;;;4.07;;
11125;SDS011;5617;54.046;10.676;2024-01-16T05:40:47;7.53;;;5.17;;
11125;SDS011;5617;54.046;10.676;2024-01-16T05:42:56;9.80;;;5.20;;
11125;SDS011;5617;54.046;10.676;2024-01-16T05:45:04;7.60;;;4.70;;
11125;SDS011;5617;54.046;10.676;2024-01-16T05:47:13;5.73;;;4.73;;
11125;SDS011;5617;54.046;10.676;2024-01-16T05:49:22;7.63;;;4.87;;
11125;SDS011;5617;54.046;10.676;2024-01-16T05:51:30;8.40;;;5.15;;
11125;SDS011;5617;54.046;10.676;2024-01-16T05:53:38;7.23;;;4.53;;
11125;SDS011;5617;54.046;10.676;2024-01-16T05:55:48;7.33;;;4.70;;
11125;SDS011;5617;54.046;10.676;2024-01-16T05:57:57;7.30;;;5.07;;
11125;SDS011;5617;54.046;10.676;2024-01-16T06:00:06;8.97;;;5.30;;
11125;SDS011;5617;54.046;10.676;2024-01-16T06:02:15;6.93;;;4.73;;
11125;SDS011;5617;54.046;10.676;2024-01-16T06:04:24;6.93;;;4.97;;
11125;SDS011;5617;54.046;10.676;2024-01-16T06:06:32;8.93;;;4.63;;
11125;SDS011;5617;54.046;10.676;2024-01-16T06:08:39;7.57;;;5.37;;
11125;SDS011;5617;54.046;10.676;2024-01-16T06:10:49;6.20;;;4.93;;
11125;SDS011;5617;54.046;10.676;2024-01-16T06:12:58;6.93;;;5.10;;
11125;SDS011;5617;54.046;10.676;2024-01-16T06:15:06;7.00;;;5.00;;
11125;SDS011;5617;54.046;10.676;2024-01-16T06:17:17;8.07;;;5.10;;
11125;SDS011;5617;54.046;10.676;2024-01-16T06:19:25;7.97;;;5.30;;
11125;SDS011;5617;54.046;10.676;2024-01-16T06:21:34;6.93;;;4.80;;
11125;SDS011;5617;54.046;10.676;2024-01-16T06:23:42;7.40;;;5.43;;
11125;SDS011;5617;54.046;10.676;2024-01-16T06:25:52;8.93;;;5.00;;
11125;SDS011;5617;54.046;10.676;2024-01-16T06:28:01;7.77;;;5.77;;
11125;SDS011;5617;54.046;10.676;2024-01-16T06:30:13;10.03;;;5.50;;
11125;SDS011;5617;54.046;10.676;2024-01-16T06:32:22;9.73;;;6.10;;
11125;SDS011;5617;54.046;10.676;2024-01-16T06:34:33;8.93;;;5.80;;
11125;SDS011;5617;54.046;10.676;2024-01-16T06:36:42;10.30;;;5.90;;
11125;SDS011;5617;54.046;10.676;2024-01-16T06:38:51;9.07;;;6.20;;
11125;SDS011;5617;54.046;10.676;2024-01-16T06:41:01;7.97;;;5.50;;
11125;SDS011;5617;54.046;10.676;2024-01-16T06:43:09;6.67;;;5.50;;
11125;SDS011;5617;54.046;10.676;2024-01-16T06:45:21;9.33;;;5.93;;
11125;SDS011;5617;54.046;10.676;2024-01-16T06:47:28;7.97;;;5.70;;
11125;SDS011;5617;54.046;10.676;2024-01-16T06:49:36;9.63;;;6.17;;
11125;SDS011;5617;54.046;10.676;2024-01-16T06:51:45;8.53;;;5.73;;
11125;SDS011;5617;54.046;10.676;2024-01-16T06:53:53;8.17;;;5.63;;
11125;SDS011;5617;54.046;10.676;2024-01-16T06:56:04;10.13;;;6.47;;
11125;SDS011;5617;54.046;10.676;2024-01-16T06:58:14;10.33;;;5.67;;
11125;SDS011;5617;54.046;10.676;2024-01-16T07:00:22;9.80;;;6.40;;
11125;SDS011;5617;54.046;10.676;2024-01-16T07:02:33;10.13;;;6.23;;
11125;SDS011;5617;54.046;10.676;2024-01-16T07:04:42;7.70;;;6.00;;
11125;SDS011;5617;54.046;10.676;2024-01-16T07:06:51;9.27;;;5.57;;
11125;SDS011;5617;54.046;10.676;2024-01-16T07:09:00;9.87;;;6.30;;
11125;SDS011;5617;54.046;10.676;2024-01-16T07:11:13;10.03;;;6.67;;
11125;SDS011;5617;54.046;10.676;2024-01-16T07:13:21;11.20;;;7.77;;
11125;SDS011;5617;54.046;10.676;2024-01-16T07:15:30;11.53;;;7.90;;
11125;SDS011;5617;54.046;10.676;2024-01-16T07:17:38;8.60;;;6.67;;
11125;SDS011;5617;54.046;10.676;2024-01-16T07:19:47;9.93;;;5.80;;
11125;SDS011;5617;54.046;10.676;2024-01-16T07:21:55;8.93;;;6.83;;
11125;SDS011;5617;54.046;10.676;2024-01-16T07:24:04;9.73;;;6.13;;
11125;SDS011;5617;54.046;10.676;2024-01-16T07:26:14;9.57;;;6.50;;
11125;SDS011;5617;54.046;10.676;2024-01-16T07:28:23;8.37;;;5.93;;
11125;SDS011;5617;54.046;10.676;2024-01-16T07:30:32;7.73;;;6.40;;
11125;SDS011;5617;54.046;10.676;2024-01-16T07:32:39;10.00;;;7.23;;
11125;SDS011;5617;54.046;10.676;2024-01-16T07:34:48;12.83;;;6.40;;
11125;SDS011;5617;54.046;10.676;2024-01-16T07:36:58;10.63;;;6.60;;
11125;SDS011;5617;54.046;10.676;2024-01-16T07:39:06;11.90;;;6.47;;
11125;SDS011;5617;54.046;10.676;2024-01-16T07:41:16;10.60;;;6.37;;
11125;SDS011;5617;54.046;10.676;2024-01-16T07:43:25;10.20;;;6.90;;
11125;SDS011;5617;54.046;10.676;2024-01-16T07:45:34;9.93;;;6.53;;
11125;SDS011;5617;54.046;10.676;2024-01-16T07:47:42;13.93;;;7.30;;
11125;SDS011;5617;54.046;10.676;2024-01-16T07:49:50;10.37;;;6.70;;
11125;SDS011;5617;54.046;10.676;2024-01-16T07:51:59;11.70;;;7.27;;
11125;SDS011;5617;54.046;10.676;2024-01-16T07:54:07;10.00;;;7.03;;
11125;SDS011;5617;54.046;10.676;2024-01-16T07:56:18;11.00;;;7.10;;
11125;SDS011;5617;54.046;10.676;2024-01-16T07:58:26;11.43;;;7.27;;
11125;SDS011;5617;54.046;10.676;2024-01-16T08:00:35;11.77;;;7.60;;
11125;SDS011;5617;54.046;10.676;2024-01-16T08:02:44;11.47;;;7.50;;
11125;SDS011;5617;54.046;10.676;2024-01-16T08:04:52;12.20;;;7.60;;
11125;SDS011;5617;54.046;10.676;2024-01-16T08:07:00;11.37;;;7.67;;
11125;SDS011;5617;54.046;10.676;2024-01-16T08:09:09;11.13;;;7.33;;
11125;SDS011;5617;54.046;10.676;2024-01-16T08:11:20;14.17;;;9.30;;
11125;SDS011;5617;54.046;10.676;2024-01-16T08:13:29;11.00;;;7.50;;
11125;SDS011;5617;54.046;10.676;2024-01-16T08:15:37;11.93;;;7.63;;
11125;SDS011;5617;54.046;10.676;2024-01-16T08:17:45;13.47;;;8.37;;
11125;SDS011;5617;54.046;10.676;2024-01-16T08:19:54;14.00;;;8.73;;
11125;SDS011;5617;54.046;10.676;2024-01-16T08:22:02;12.53;;;8.10;;
11125;SDS011;5617;54.046;10.676;2024-01-16T08:24:17;11.93;;;8.23;;
11125;SDS011;5617;54.046;10.676;2024-01-16T08:26:26;13.73;;;8.93;;
11125;SDS011;5617;54.046;10.676;2024-01-16T08:28:35;13.67;;;7.83;;
11125;SDS011;5617;54.046;10.676;2024-01-16T08:30:43;12.17;;;7.97;;
11125;SDS011;5617;54.046;10.676;2024-01-16T08:32:51;13.77;;;8.90;;
11125;SDS011;5617;54.046;10.676;2024-01-16T08:35:00;15.07;;;8.43;;
11125;SDS011;5617;54.046;10.676;2024-01-16T08:37:10;12.87;;;8.30;;
11125;SDS011;5617;54.046;10.676;2024-01-16T08:39:18;13.00;;;8.87;;
11125;SDS011;5617;54.046;10.676;2024-01-16T08:41:28;12.27;;;8.50;;
11125;SDS011;5617;54.046;10.676;2024-01-16T08:43:36;13.30;;;9.23;;
11125;SDS011;5617;54.046;10.676;2024-01-16T08:45:44;11.30;;;8.50;;
11125;SDS011;5617;54.046;10.676;2024-01-16T08:47:54;13.47;;;8.97;;
11125;SDS011;5617;54.046;10.676;2024-01-16T08:50:03;15.23;;;8.93;;
11125;SDS011;5617;54.046;10.676;2024-01-16T08:52:13;13.40;;;8.97;;
11125;SDS011;5617;54.046;10.676;2024-01-16T08:54:22;14.33;;;9.20;;
11125;SDS011;5617;54.046;10.676;2024-01-16T08:56:34;18.40;;;8.60;;
11125;SDS011;5617;54.046;10.676;2024-01-16T08:58:42;13.33;;;8.47;;
11125;SDS011;5617;54.046;10.676;2024-01-16T09:00:50;13.23;;;9.10;;
11125;SDS011;5617;54.046;10.676;2024-01-16T09:02:59;14.83;;;9.20;;
11125;SDS011;5617;54.046;10.676;2024-01-16T09:05:12;14.27;;;9.13;;
11125;SDS011;5617;54.046;10.676;2024-01-16T09:07:21;13.30;;;8.37;;
11125;SDS011;5617;54.046;10.676;2024-01-16T09:09:29;14.47;;;8.83;;
11125;SDS011;5617;54.046;10.676;2024-01-16T09:11:40;16.77;;;10.83;;
11125;SDS011;5617;54.046;10.676;2024-01-16T09:13:49;15.07;;;8.93;;
11125;SDS011;5617;54.046;10.676;2024-01-16T09:15:58;13.07;;;9.17;;
11125;SDS011;5617;54.046;10.676;2024-01-16T09:18:06;12.60;;;8.70;;
11125;SDS011;5617;54.046;10.676;2024-01-16T09:20:14;13.13;;;8.70;;
11125;SDS011;5617;54.046;10.676;2024-01-16T09:22:24;17.83;;;9.90;;
11125;SDS011;5617;54.046;10.676;2024-01-16T09:24:32;14.33;;;9.10;;
11125;SDS011;5617;54.046;10.676;2024-01-16T09:26:42;13.90;;;8.67;;
11125;SDS011;5617;54.046;10.676;2024-01-16T09:28:50;15.60;;;8.97;;
11125;SDS011;5617;54.046;10.676;2024-01-16T09:30:59;13.20;;;8.27;;
11125;SDS011;5617;54.046;10.676;2024-01-16T09:33:08;13.03;;;8.70;;
11125;SDS011;5617;54.046;10.676;2024-01-16T09:35:17;16.60;;;8.90;;
11125;SDS011;5617;54.046;10.676;2024-01-16T09:37:26;12.63;;;8.93;;
11125;SDS011;5617;54.046;10.676;2024-01-16T09:39:34;14.77;;;8.93;;
11125;SDS011;5617;54.046;10.676;2024-01-16T09:41:46;12.13;;;8.53;;
11125;SDS011;5617;54.046;10.676;2024-01-16T09:43:56;13.20;;;8.77;;
11125;SDS011;5617;54.046;10.676;2024-01-16T09:46:04;15.87;;;9.50;;
11125;SDS011;5617;54.046;10.676;2024-01-16T09:48:13;12.67;;;8.87;;
11125;SDS011;5617;54.046;10.676;2024-01-16T09:50:22;13.23;;;8.03;;
11125;SDS011;5617;54.046;10.676;2024-01-16T09:52:31;12.93;;;8.60;;
11125;SDS011;5617;54.046;10.676;2024-01-16T09:54:39;12.80;;;8.70;;
11125;SDS011;5617;54.046;10.676;2024-01-16T09:56:50;12.63;;;8.07;;
11125;SDS011;5617;54.046;10.676;2024-01-16T09:59:02;10.67;;;7.47;;
11125;SDS011;5617;54.046;10.676;2024-01-16T10:01:16;11.60;;;8.13;;
11125;SDS011;5617;54.046;10.676;2024-01-16T10:03:24;12.40;;;7.63;;
11125;SDS011;5617;54.046;10.676;2024-01-16T10:05:36;10.27;;;7.10;;
11125;SDS011;5617;54.046;10.676;2024-01-16T10:07:47;9.53;;;6.77;;
11125;SDS011;5617;54.046;10.676;2024-01-16T10:09:57;12.43;;;7.83;;
11125;SDS011;5617;54.046;10.676;2024-01-16T10:12:08;8.73;;;6.90;;
11125;SDS011;5617;54.046;10.676;2024-01-16T10:14:20;10.53;;;6.70;;
11125;SDS011;5617;54.046;10.676;2024-01-16T10:19:05;7.77;;;6.43;;
11125;SDS011;5617;54.046;10.676;2024-01-16T10:21:19;10.07;;;6.57;;
11125;SDS011;5617;54.046;10.676;2024-01-16T10:23:29;10.53;;;8.30;;
11125;SDS011;5617;54.046;10.676;2024-01-16T10:25:40;8.37;;;5.70;;
11125;SDS011;5617;54.046;10.676;2024-01-16T10:28:02;9.20;;;6.07;;
11125;SDS011;5617;54.046;10.676;2024-01-16T10:30:11;7.60;;;5.30;;
11125;SDS011;5617;54.046;10.676;2024-01-16T10:32:27;5.77;;;4.30;;
11125;SDS011;5617;54.046;10.676;2024-01-16T10:34:37;4.30;;;3.00;;
11125;SDS011;5617;54.046;10.676;2024-01-16T10:36:46;4.33;;;2.50;;
11125;SDS011;5617;54.046;10.676;2024-01-16T10:38:54;1.97;;;1.77;;
11125;SDS011;5617;54.046;10.676;2024-01-16T10:41:12;3.13;;;1.67;;
11125;SDS011;5617;54.046;10.676;2024-01-16T10:43:22;6.67;;;4.03;;
11125;SDS011;5617;54.046;10.676;2024-01-16T10:45:31;4.23;;;2.27;;
11125;SDS011;5617;54.046;10.676;2024-01-16T10:47:39;2.30;;;2.10;;
11125;SDS011;5617;54.046;10.676;2024-01-16T10:49:49;3.57;;;2.43;;
11125;SDS011;5617;54.046;10.676;2024-01-16T10:51:58;2.43;;;1.80;;
11125;SDS011;5617;54.046;10.676;2024-01-16T10:54:07;5.63;;;2.40;;
11125;SDS011;5617;54.046;10.676;2024-01-16T10:56:22;4.27;;;2.37;;
11125;SDS011;5617;54.046;10.676;2024-01-16T10:58:33;8.10;;;2.57;;
11125;SDS011;5617;54.046;10.676;2024-01-16T11:00:43;2.93;;;2.30;;
11125;SDS011;5617;54.046;10.676;2024-01-16T11:02:58;3.90;;;2.57;;
11125;SDS011;5617;54.046;10.676;2024-01-16T11:05:09;2.73;;;2.10;;
11125;SDS011;5617;54.046;10.676;2024-01-16T11:07:20;3.40;;;2.60;;
11125;SDS011;5617;54.046;10.676;2024-01-16T11:09:31;3.73;;;2.60;;
11125;SDS011;5617;54.046;10.676;2024-01-16T11:11:41;11.00;;;2.67;;
11125;SDS011;5617;54.046;10.676;2024-01-16T11:13:54;4.97;;;2.20;;
11125;SDS011;5617;54.046;10.676;2024-01-16T11:16:03;3.90;;;2.17;;
11125;SDS011;5617;54.046;10.676;2024-01-16T11:18:14;4.20;;;2.30;;
11125;SDS011;5617;54.046;10.676;2024-01-16T11:20:23;2.43;;;2.00;;
11125;SDS011;5617;54.046;10.676;2024-01-16T11:22:51;3.43;;;2.07;;
11125;SDS011;5617;54.046;10.676;2024-01-16T11:25:12;3.83;;;2.03;;
11125;SDS011;5617;54.046;10.676;2024-01-16T11:27:22;3.90;;;2.33;;
11125;SDS011;5617;54.046;10.676;2024-01-16T11:29:34;3.83;;;2.43;;
11125;SDS011;5617;54.046;10.676;2024-01-16T11:31:46;6.30;;;2.50;;
11125;SDS011;5617;54.046;10.676;2024-01-16T11:33:55;3.30;;;2.20;;
11125;SDS011;5617;54.046;10.676;2024-01-16T11:36:03;3.33;;;1.87;;
11125;SDS011;5617;54.046;10.676;2024-01-16T11:38:17;3.93;;;2.00;;
11125;SDS011;5617;54.046;10.676;2024-01-16T11:40:30;2.80;;;1.90;;
11125;SDS011;5617;54.046;10.676;2024-01-16T11:42:40;2.90;;;2.20;;
11125;SDS011;5617;54.046;10.676;2024-01-16T11:44:51;4.20;;;2.43;;
11125;SDS011;5617;54.046;10.676;2024-01-16T11:47:01;3.23;;;2.00;;
11125;SDS011;5617;54.046;10.676;2024-01-16T11:49:09;5.67;;;2.37;;
11125;SDS011;5617;54.046;10.676;2024-01-16T11:51:25;3.87;;;2.60;;
11125;SDS011;5617;54.046;10.676;2024-01-16T11:53:34;2.13;;;1.93;;
11125;SDS011;5617;54.046;10.676;2024-01-16T11:55:50;7.53;;;2.37;;
11125;SDS011;5617;54.046;10.676;2024-01-16T11:58:18;2.03;;;1.50;;
11125;SDS011;5617;54.046;10.676;2024-01-16T12:00:40;3.80;;;2.40;;
11125;SDS011;5617;54.046;10.676;2024-01-16T12:02:51;4.03;;;2.50;;
11125;SDS011;5617;54.046;10.676;2024-01-16T12:05:01;6.73;;;2.60;;
11125;SDS011;5617;54.046;10.676;2024-01-16T12:07:14;5.37;;;2.50;;
11125;SDS011;5617;54.046;10.676;2024-01-16T12:09:24;4.40;;;2.57;;
11125;SDS011;5617;54.046;10.676;2024-01-16T12:11:34;4.07;;;2.50;;
11125;SDS011;5617;54.046;10.676;2024-01-16T12:14:00;6.93;;;3.50;;
11125;SDS011;5617;54.046;10.676;2024-01-16T12:16:11;4.47;;;2.73;;
11125;SDS011;5617;54.046;10.676;2024-01-16T12:18:20;8.60;;;3.13;;
11125;SDS011;5617;54.046;10.676;2024-01-16T12:20:45;6.30;;;2.77;;
11125;SDS011;5617;54.046;10.676;2024-01-16T12:22:57;3.73;;;2.47;;
11125;SDS011;5617;54.046;10.676;2024-01-16T12:25:06;6.63;;;3.03;;
11125;SDS011;5617;54.046;10.676;2024-01-16T12:27:15;3.60;;;2.53;;
11125;SDS011;5617;54.046;10.676;2024-01-16T12:29:24;3.73;;;2.10;;
11125;SDS011;5617;54.046;10.676;2024-01-16T12:31:34;4.30;;;2.67;;
11125;SDS011;5617;54.046;10.676;2024-01-16T12:33:43;5.40;;;2.70;;
11125;SDS011;5617;54.046;10.676;2024-01-16T12:36:06;3.37;;;2.73;;
11125;SDS011;5617;54.046;10.676;2024-01-16T12:38:16;5.93;;;2.70;;
11125;SDS011;5617;54.046;10.676;2024-01-16T12:40:25;4.80;;;2.60;;
11125;SDS011;5617;54.046;10.676;2024-01-16T12:42:33;3.17;;;2.43;;
11125;SDS011;5617;54.046;10.676;2024-01-16T12:44:42;4.23;;;2.00;;
11125;SDS011;5617;54.046;10.676;2024-01-16T12:46:55;3.93;;;2.23;;
11125;SDS011;5617;54.046;10.676;2024-01-16T12:49:03;4.73;;;2.40;;
11125;SDS011;5617;54.046;10.676;2024-01-16T12:51:19;2.07;;;1.83;;
11125;SDS011;5617;54.046;10.676;2024-01-16T12:53:28;3.47;;;1.80;;
11125;SDS011;5617;54.046;10.676;2024-01-16T12:55:39;3.73;;;1.90;;
11125;SDS011;5617;54.046;10.676;2024-01-16T12:57:48;3.60;;;2.13;;
11125;SDS011;5617;54.046;10.676;2024-01-16T12:59:57;2.17;;;1.80;;
11125;SDS011;5617;54.046;10.676;2024-01-16T13:02:19;4.63;;;2.23;;